createdAt,value
2018-11-25T00:00:32.753Z,-0.30
2018-11-25T00:03:02.845Z,-0.30
2018-11-25T00:05:55.286Z,-0.30
2018-11-25T00:08:28.014Z,-0.30
2018-11-25T00:11:01.698Z,-0.30
2018-11-25T00:13:30.451Z,-0.30
2018-11-25T00:16:03.874Z,-0.30
2018-11-25T00:18:37.554Z,-0.20
2018-11-25T00:21:07.257Z,-0.20
2018-11-25T00:23:37.322Z,-0.20
2018-11-25T00:26:12.297Z,-0.20
2018-11-25T00:28:45.906Z,-0.20
2018-11-25T00:31:18.462Z,-0.10
2018-11-25T00:33:49.491Z,-0.20
2018-11-25T00:36:19.463Z,-0.20
2018-11-25T00:38:53.549Z,-0.20
2018-11-25T00:41:24.248Z,-0.20
2018-11-25T00:43:53.319Z,-0.20
2018-11-25T00:46:22.862Z,-0.30
2018-11-25T00:48:53.822Z,-0.30
2018-11-25T00:51:25.968Z,-0.30
2018-11-25T00:53:58.643Z,-0.30
2018-11-25T00:56:30.358Z,-0.30
2018-11-25T00:59:00.169Z,-0.20
2018-11-25T01:01:36.266Z,-0.20
2018-11-25T01:04:08.930Z,-0.20
2018-11-25T01:06:42.596Z,-0.20
2018-11-25T01:09:12.632Z,-0.20
2018-11-25T01:11:44.374Z,-0.20
2018-11-25T01:14:16.906Z,-0.20
2018-11-25T01:16:55.238Z,-0.10
2018-11-25T01:19:27.920Z,-0.10
2018-11-25T01:22:00.693Z,-0.10
2018-11-25T01:24:30.343Z,-0.10
2018-11-25T01:27:00.378Z,-0.10
2018-11-25T01:29:29.350Z,-0.10
2018-11-25T01:32:00.542Z,-0.10
2018-11-25T01:34:36.399Z,-0.10
2018-11-25T01:37:09.149Z,-0.10
2018-11-25T01:39:41.242Z,-0.10
2018-11-25T01:42:10.270Z,-0.10
2018-11-25T01:44:39.926Z,-0.10
2018-11-25T01:47:10.729Z,-0.10
2018-11-25T01:49:44.235Z,-0.10
2018-11-25T01:52:17.705Z,-0.10
2018-11-25T01:54:50.589Z,-0.10
2018-11-25T01:57:20.961Z,-0.10
2018-11-25T01:59:50.728Z,-0.10
2018-11-25T02:02:22.708Z,-0.10
2018-11-25T02:04:57.211Z,-0.10
2018-11-25T02:07:31.595Z,-0.20
2018-11-25T02:10:04.434Z,-0.30
2018-11-25T02:12:37.542Z,-0.40
2018-11-25T02:15:10.868Z,-0.50
2018-11-25T02:17:42.169Z,-0.60
2018-11-25T02:20:27.382Z,-0.70
2018-11-25T02:23:03.337Z,-0.80
2018-11-25T02:25:35.612Z,-0.90
2018-11-25T02:28:06.757Z,-1.00
2018-11-25T02:30:36.432Z,-1.10
2018-11-25T02:33:06.329Z,-1.20
2018-11-25T02:35:36.973Z,-1.20
2018-11-25T02:38:06.834Z,-1.30
2018-11-25T02:40:37.732Z,-1.30
2018-11-25T02:43:09.591Z,-1.40
2018-11-25T02:45:42.189Z,-1.40
2018-11-25T02:48:13.334Z,-1.50
2018-11-25T02:50:46.526Z,-1.50
2018-11-25T02:53:15.950Z,-1.60
2018-11-25T02:55:45.458Z,-1.60
2018-11-25T02:58:18.167Z,-1.60
2018-11-25T03:00:51.173Z,-1.70
2018-11-25T03:03:25.806Z,-1.60
2018-11-25T03:05:59.411Z,-1.70
2018-11-25T03:08:33.086Z,-1.70
2018-11-25T03:11:05.230Z,-1.80
2018-11-25T03:13:37.902Z,-1.90
2018-11-25T03:16:07.437Z,-1.90
2018-11-25T03:18:38.546Z,-2.00
2018-11-25T03:21:10.272Z,-2.00
2018-11-25T03:23:59.696Z,-2.10
2018-11-25T03:26:32.745Z,-2.10
2018-11-25T03:29:05.187Z,-2.10
2018-11-25T03:31:37.829Z,-2.10
2018-11-25T03:34:10.938Z,-2.10
2018-11-25T03:36:43.913Z,-2.20
2018-11-25T03:39:14.634Z,-2.20
2018-11-25T03:41:47.719Z,-2.30
2018-11-25T03:44:19.178Z,-2.30
2018-11-25T03:46:50.769Z,-2.30
2018-11-25T03:49:20.094Z,-2.40
2018-11-25T03:51:53.897Z,-2.40
2018-11-25T03:54:25.545Z,-2.40
2018-11-25T03:56:57.913Z,-2.40
2018-11-25T03:59:34.410Z,-2.40
2018-11-25T04:02:09.529Z,-2.30
2018-11-25T04:04:41.740Z,-2.20
2018-11-25T04:07:12.231Z,-2.20
2018-11-25T04:09:43.708Z,-2.10
2018-11-25T04:12:16.954Z,-2.00
2018-11-25T04:15:08.331Z,-2.00
2018-11-25T04:17:43.355Z,-2.10
2018-11-25T04:20:22.606Z,-2.00
2018-11-25T04:22:55.059Z,-2.00
2018-11-25T04:25:24.781Z,-2.10
2018-11-25T04:27:57.929Z,-2.00
2018-11-25T04:30:28.338Z,-2.10
2018-11-25T04:33:00.553Z,-2.10
2018-11-25T04:35:31.728Z,-2.10
2018-11-25T04:38:06.953Z,-2.00
2018-11-25T04:40:40.694Z,-1.90
2018-11-25T04:43:17.237Z,-1.90
2018-11-25T04:45:47.548Z,-2.00
2018-11-25T04:48:20.038Z,-2.10
2018-11-25T04:50:50.440Z,-2.10
2018-11-25T04:53:23.445Z,-2.20
2018-11-25T04:55:52.995Z,-2.20
2018-11-25T05:00:16.772Z,-2.20
2018-11-25T05:02:45.469Z,-2.20
2018-11-25T05:05:14.811Z,-2.20
2018-11-25T05:07:43.630Z,-2.20
2018-11-25T05:10:16.072Z,-2.20
2018-11-25T05:12:45.245Z,-2.20
2018-11-25T05:15:15.828Z,-2.30
2018-11-25T05:17:44.376Z,-2.30
2018-11-25T05:20:13.957Z,-2.30
2018-11-25T05:22:42.477Z,-2.40
2018-11-25T05:25:16.383Z,-2.40
2018-11-25T05:27:44.964Z,-2.50
2018-11-25T05:30:14.629Z,-2.50
2018-11-25T05:32:43.217Z,-2.60
2018-11-25T05:35:12.923Z,-2.70
2018-11-25T05:37:41.487Z,-2.70
2018-11-25T05:40:14.925Z,-2.80
2018-11-25T05:42:43.575Z,-2.80
2018-11-25T05:45:15.612Z,-2.70
2018-11-25T05:47:44.144Z,-2.70
2018-11-25T05:50:14.555Z,-2.80
2018-11-25T05:52:43.311Z,-2.80
2018-11-25T05:55:12.402Z,-3.00
2018-11-25T05:57:41.085Z,-3.10
2018-11-25T06:00:37.769Z,-3.20
2018-11-25T06:03:06.317Z,-3.30
2018-11-25T06:05:34.841Z,-3.40
2018-11-25T06:08:03.633Z,-3.50
2018-11-25T06:12:01.594Z,-3.50
2018-11-25T06:14:30.357Z,-3.70
2018-11-25T06:16:58.901Z,-3.90
2018-11-25T06:19:27.405Z,-3.90
2018-11-25T06:21:56.272Z,-4.00
2018-11-25T06:24:24.853Z,-4.10
2018-11-25T06:26:53.357Z,-4.10
2018-11-25T06:29:21.897Z,-4.10
2018-11-25T06:31:50.477Z,-4.10
2018-11-25T06:34:18.986Z,-4.10
2018-11-25T06:36:47.949Z,-4.20
2018-11-25T06:39:16.489Z,-4.20
2018-11-25T06:41:45.013Z,-4.20
2018-11-25T06:44:13.766Z,-4.20
2018-11-25T06:46:42.253Z,-4.20
2018-11-25T06:49:10.949Z,-4.30
2018-11-25T06:51:40.497Z,-4.30
2018-11-25T06:54:08.989Z,-4.40
2018-11-25T06:56:37.487Z,-4.40
2018-11-25T06:59:06.673Z,-4.50
2018-11-25T07:01:35.581Z,-4.50
2018-11-25T07:04:04.144Z,-4.50
2018-11-25T07:06:32.735Z,-4.50
2018-11-25T07:09:01.273Z,-4.50
2018-11-25T07:11:29.809Z,-4.60
2018-11-25T07:13:58.871Z,-4.50
2018-11-25T07:16:27.486Z,-4.50
2018-11-25T07:18:56.037Z,-4.60
2018-11-25T07:21:24.582Z,-4.70
2018-11-25T07:23:53.107Z,-4.70
2018-11-25T07:26:21.672Z,-4.70
2018-11-25T07:28:50.276Z,-4.70
2018-11-25T07:31:18.820Z,-4.60
2018-11-25T07:33:47.377Z,-4.60
2018-11-25T07:36:18.005Z,-4.50
2018-11-25T07:38:46.597Z,-4.50
2018-11-25T07:41:15.112Z,-4.30
2018-11-25T07:43:43.665Z,-4.20
2018-11-25T07:46:12.169Z,-4.10
2018-11-25T07:48:40.716Z,-4.00
2018-11-25T07:51:09.397Z,-3.90
2018-11-25T07:53:37.932Z,-3.80
2018-11-25T07:56:06.465Z,-3.70
2018-11-25T07:58:35.473Z,-3.60
2018-11-25T08:01:03.999Z,-3.60
2018-11-25T08:03:32.544Z,-3.60
2018-11-25T08:06:01.039Z,-3.50
2018-11-25T08:08:29.545Z,-3.50
2018-11-25T08:10:58.110Z,-3.50
2018-11-25T08:13:26.620Z,-3.50
2018-11-25T08:15:55.229Z,-3.40
2018-11-25T08:18:23.768Z,-3.40
2018-11-25T08:20:52.634Z,-3.30
2018-11-25T08:23:21.154Z,-3.20
2018-11-25T08:25:49.841Z,-3.20
2018-11-25T08:28:19.262Z,-3.10
2018-11-25T08:30:47.481Z,-3.10
2018-11-25T08:33:15.980Z,-3.00
2018-11-25T08:35:45.206Z,-3.00
2018-11-25T08:38:13.741Z,-3.00
2018-11-25T08:40:42.290Z,-2.90
2018-11-25T08:43:11.231Z,-2.80
2018-11-25T08:45:39.741Z,-2.70
2018-11-25T08:48:08.252Z,-2.60
2018-11-25T08:50:36.809Z,-2.60
2018-11-25T08:53:05.416Z,-2.60
2018-11-25T08:55:33.943Z,-2.60
2018-11-25T08:58:02.561Z,-2.60
2018-11-25T09:00:31.083Z,-2.50
2018-11-25T09:02:59.618Z,-2.50
2018-11-25T09:08:33.773Z,-2.40
2018-11-25T09:11:02.328Z,-2.30
2018-11-25T09:13:30.846Z,-2.10
2018-11-25T09:15:59.439Z,-2.00
2018-11-25T09:18:28.056Z,-1.80
2018-11-25T09:20:56.562Z,-1.70
2018-11-25T09:23:25.121Z,-1.60
2018-11-25T09:25:53.672Z,-1.50
2018-11-25T09:28:22.261Z,-1.40
2018-11-25T09:30:50.770Z,-1.30
2018-11-25T09:33:19.516Z,-1.20
2018-11-25T09:35:48.058Z,-1.20
2018-11-25T09:38:16.593Z,-1.10
2018-11-25T09:40:45.198Z,-1.10
2018-11-25T09:43:13.795Z,-1.20
2018-11-25T09:45:42.319Z,-1.20
2018-11-25T09:48:11.169Z,-1.20
2018-11-25T09:50:39.693Z,-1.20
2018-11-25T09:53:08.357Z,-1.20
2018-11-25T09:55:36.932Z,-1.20
2018-11-25T09:58:05.681Z,-1.30
2018-11-25T10:00:35.123Z,-1.40
2018-11-25T10:03:05.927Z,-1.40
2018-11-25T10:05:34.539Z,-1.40
2018-11-25T10:08:03.087Z,-1.40
2018-11-25T10:10:31.976Z,-1.40
2018-11-25T10:13:00.490Z,-1.50
2018-11-25T10:15:29.740Z,-1.50
2018-11-25T10:17:59.871Z,-1.50
2018-11-25T10:20:28.946Z,-1.50
2018-11-25T10:22:57.550Z,-1.50
2018-11-25T10:25:27.216Z,-1.60
2018-11-25T10:27:55.806Z,-1.60
2018-11-25T10:30:26.766Z,-1.60
2018-11-25T10:32:58.825Z,-1.60
2018-11-25T10:35:27.430Z,-1.50
2018-11-25T10:37:55.985Z,-1.50
2018-11-25T10:40:25.677Z,-1.50
2018-11-25T10:42:54.504Z,-1.50
2018-11-25T10:45:24.152Z,-1.50
2018-11-25T10:47:52.801Z,-1.50
2018-11-25T10:50:21.669Z,-1.50
2018-11-25T10:52:50.305Z,-1.50
2018-11-25T10:55:19.721Z,-1.50
2018-11-25T10:57:49.221Z,-1.50
2018-11-25T11:00:43.226Z,-1.50
2018-11-25T11:03:17.117Z,-1.50
2018-11-25T11:05:51.026Z,-1.50
2018-11-25T11:08:19.622Z,-1.40
2018-11-25T11:10:48.209Z,-1.40
2018-11-25T11:13:16.729Z,-1.40
2018-11-25T11:15:45.372Z,-1.30
2018-11-25T11:18:13.924Z,-1.30
2018-11-25T11:20:42.725Z,-1.30
2018-11-25T11:23:11.346Z,-1.40
2018-11-25T11:25:39.905Z,-1.30
2018-11-25T11:28:08.480Z,-1.30
2018-11-25T11:30:36.961Z,-1.30
2018-11-25T11:33:05.671Z,-1.30
2018-11-25T11:35:34.322Z,-1.30
2018-11-25T11:38:02.825Z,-1.30
2018-11-25T11:40:31.325Z,-1.30
2018-11-25T11:42:59.888Z,-1.30
2018-11-25T11:45:28.404Z,-1.30
2018-11-25T11:47:57.019Z,-1.30
2018-11-25T11:50:26.197Z,-1.20
2018-11-25T11:52:54.689Z,-1.30
2018-11-25T11:55:23.189Z,-1.30
2018-11-25T11:57:52.403Z,-1.20
2018-11-25T12:00:26.156Z,-1.20
2018-11-25T12:02:54.736Z,-1.20
2018-11-25T12:05:23.256Z,-1.20
2018-11-25T12:07:51.785Z,-1.20
2018-11-25T12:10:20.680Z,-1.30
2018-11-25T12:12:49.322Z,-1.30
2018-11-25T12:15:30.245Z,-1.20
2018-11-25T12:17:53.161Z,-1.20
2018-11-25T12:20:22.271Z,-1.20
2018-11-25T12:22:52.083Z,-1.10
2018-11-25T12:25:20.700Z,-1.00
2018-11-25T12:27:49.209Z,-0.80
2018-11-25T12:30:18.545Z,-0.50
2018-11-25T12:32:48.475Z,-0.20
2018-11-25T12:35:17.645Z,-0.10
2018-11-25T12:37:46.582Z,-0.20
2018-11-25T12:40:17.245Z,-0.40
2018-11-25T12:42:47.129Z,-0.50
2018-11-25T12:45:16.706Z,-0.70
2018-11-25T12:47:45.249Z,-0.80
2018-11-25T12:50:29.069Z,-0.90
2018-11-25T12:52:57.602Z,-0.90
2018-11-25T12:55:27.215Z,-1.00
2018-11-25T12:57:56.632Z,-1.10
2018-11-25T13:00:34.645Z,-1.10
2018-11-25T13:03:03.484Z,-1.10
2018-11-25T13:05:32.141Z,-1.10
2018-11-25T13:08:00.672Z,-1.10
2018-11-25T13:10:30.024Z,-1.10
2018-11-25T13:12:58.573Z,-1.10
2018-11-25T13:15:27.106Z,-1.20
2018-11-25T13:17:55.672Z,-1.30
2018-11-25T13:20:24.230Z,-1.20
2018-11-25T13:22:52.750Z,-1.20
2018-11-25T13:25:21.300Z,-1.20
2018-11-25T13:27:49.843Z,-1.20
2018-11-25T13:30:21.773Z,-1.20
2018-11-25T13:32:51.929Z,-1.20
2018-11-25T13:35:20.488Z,-1.20
2018-11-25T13:37:49.024Z,-1.30
2018-11-25T13:40:18.184Z,-1.30
2018-11-25T13:42:46.740Z,-1.40
2018-11-25T13:45:15.314Z,-1.40
2018-11-25T13:47:44.173Z,-1.50
2018-11-25T13:50:12.953Z,-1.50
2018-11-25T13:52:42.161Z,-1.60
2018-11-25T13:55:15.159Z,-1.60
2018-11-25T13:57:43.764Z,-1.70
2018-11-25T14:00:19.129Z,-1.70
2018-11-25T14:02:47.713Z,-1.70
2018-11-25T14:05:16.809Z,-1.70
2018-11-25T14:07:45.757Z,-1.70
2018-11-25T14:10:18.621Z,-1.80
2018-11-25T14:12:47.607Z,-1.80
2018-11-25T14:15:16.108Z,-1.80
2018-11-25T14:17:44.609Z,-1.80
2018-11-25T14:20:13.407Z,-1.90
2018-11-25T14:22:41.942Z,-1.90
2018-11-25T14:25:12.409Z,-2.00
2018-11-25T14:27:41.210Z,-2.20
2018-11-25T14:30:15.073Z,-2.20
2018-11-25T14:32:44.007Z,-2.30
2018-11-25T14:35:14.325Z,-2.50
2018-11-25T14:37:42.896Z,-2.60
2018-11-25T14:40:13.101Z,-2.70
2018-11-25T14:44:19.937Z,-2.80
2018-11-25T14:46:48.965Z,-2.90
2018-11-25T14:49:17.621Z,-3.00
2018-11-25T14:51:46.286Z,-3.10
2018-11-25T14:54:15.104Z,-3.20
2018-11-25T14:56:44.554Z,-3.30
2018-11-25T15:02:29.211Z,-3.40
2018-11-25T15:05:12.904Z,-3.40
2018-11-25T15:10:53.230Z,-3.60
2018-11-25T15:20:40.428Z,-3.80
2018-11-25T15:23:10.893Z,-3.80
2018-11-25T15:25:45.117Z,-3.90
2018-11-25T15:28:14.471Z,-4.00
2018-11-25T15:30:43.073Z,-4.10
2018-11-25T15:37:23.050Z,-4.10
2018-11-25T15:39:53.382Z,-4.20
2018-11-25T15:42:22.202Z,-4.30
2018-11-25T15:44:50.894Z,-4.30
2018-11-25T15:47:19.483Z,-4.30
2018-11-25T15:49:48.017Z,-4.40
2018-11-25T15:52:16.893Z,-4.50
2018-11-25T15:54:45.449Z,-4.50
2018-11-25T15:57:14.161Z,-4.60
2018-11-25T15:59:43.323Z,-4.60
2018-11-25T16:02:11.905Z,-4.70
2018-11-25T16:04:40.537Z,-4.70
2018-11-25T16:07:09.501Z,-4.70
2018-11-25T16:09:38.031Z,-4.80
2018-11-25T16:12:06.655Z,-4.80
2018-11-25T16:14:35.951Z,-4.80
2018-11-25T16:17:04.701Z,-4.90
2018-11-25T16:19:35.045Z,-4.90
2018-11-25T16:22:04.207Z,-4.90
2018-11-25T16:24:32.743Z,-4.90
2018-11-25T16:27:01.341Z,-4.90
2018-11-25T16:29:30.409Z,-5.00
2018-11-25T16:31:58.930Z,-5.00
2018-11-25T16:34:27.473Z,-5.00
2018-11-25T16:36:56.414Z,-5.00
2018-11-25T16:39:26.130Z,-5.10
2018-11-25T16:41:58.485Z,-5.10
2018-11-25T16:44:27.022Z,-5.00
2018-11-25T16:46:55.581Z,-5.10
2018-11-25T16:49:24.133Z,-5.10
2018-11-25T16:51:52.674Z,-5.20
2018-11-25T16:54:21.269Z,-5.20
2018-11-25T16:56:50.475Z,-5.20
2018-11-25T16:59:19.005Z,-5.20
2018-11-25T17:01:47.537Z,-5.30
2018-11-25T17:04:16.673Z,-5.30
2018-11-25T17:06:46.864Z,-5.30
2018-11-25T17:09:15.593Z,-5.40
2018-11-25T17:11:44.557Z,-5.40
2018-11-25T17:14:13.069Z,-5.40
2018-11-25T17:16:41.581Z,-5.40
2018-11-25T17:19:10.544Z,-5.40
2018-11-25T17:21:39.063Z,-5.40
2018-11-25T17:24:07.571Z,-5.50
2018-11-25T17:26:37.788Z,-5.50
2018-11-25T17:29:06.328Z,-5.60
2018-11-25T17:31:34.911Z,-5.60
2018-11-25T17:34:04.450Z,-5.60
2018-11-25T17:36:33.133Z,-5.60
2018-11-25T17:39:02.007Z,-5.60
2018-11-25T17:41:30.749Z,-5.70
2018-11-25T17:44:22.114Z,-5.70
2018-11-25T17:46:56.839Z,-5.70
2018-11-25T17:52:28.865Z,-5.80
2018-11-25T17:54:57.614Z,-5.80
2018-11-25T18:04:12.733Z,-5.80
2018-11-25T18:06:43.203Z,-5.80
2018-11-25T18:09:13.243Z,-5.90
2018-11-25T18:11:41.883Z,-5.90
2018-11-25T18:21:01.953Z,-5.90
2018-11-25T18:23:30.815Z,-5.90
2018-11-25T18:25:59.413Z,-5.90
2018-11-25T18:28:33.642Z,-5.90
2018-11-25T18:31:06.993Z,-6.00
2018-11-25T18:54:55.769Z,-6.00
2018-11-25T19:00:39.841Z,-5.90
2018-11-25T19:03:08.762Z,-5.80
2018-11-25T19:05:37.573Z,-5.80
2018-11-25T19:08:07.837Z,-5.80
2018-11-25T19:10:36.406Z,-5.80
2018-11-25T19:14:34.795Z,-5.70
2018-11-25T19:17:03.450Z,-5.60
2018-11-25T19:19:32.485Z,-5.50
2018-11-25T19:22:01.504Z,-5.40
2018-11-25T19:24:30.448Z,-5.30
2018-11-25T19:27:00.618Z,-5.20
2018-11-25T19:29:30.398Z,-5.20
2018-11-25T19:35:03.296Z,-4.90
2018-11-25T19:37:33.407Z,-4.80
2018-11-25T19:40:02.131Z,-4.70
2018-11-25T19:42:32.428Z,-4.60
2018-11-25T19:45:02.101Z,-4.50
2018-11-25T19:47:31.261Z,-4.40
2018-11-25T19:50:00.057Z,-4.40
2018-11-25T19:52:28.602Z,-4.30
2018-11-25T19:54:57.301Z,-4.20
2018-11-25T19:57:26.353Z,-4.10
2018-11-25T19:59:56.394Z,-4.10
2018-11-25T20:02:25.181Z,-4.00
2018-11-25T20:04:54.365Z,-3.90
2018-11-25T20:07:23.044Z,-3.90
2018-11-25T20:09:51.781Z,-3.80
2018-11-25T20:12:25.033Z,-3.80
2018-11-25T20:14:53.801Z,-3.70
2018-11-25T20:17:27.889Z,-3.70
2018-11-25T20:19:56.647Z,-3.60
2018-11-25T20:22:26.826Z,-3.50
2018-11-25T20:24:55.739Z,-3.50
2018-11-25T20:27:32.803Z,-3.40
2018-11-25T20:30:02.058Z,-3.30
2018-11-25T20:32:35.908Z,-3.30
2018-11-25T20:35:06.334Z,-3.20
2018-11-25T20:37:35.082Z,-3.20
2018-11-25T20:40:04.027Z,-3.10
2018-11-25T20:42:33.092Z,-3.10
2018-11-25T20:45:01.782Z,-3.00
2018-11-25T20:47:30.708Z,-2.90
2018-11-25T20:49:59.705Z,-2.80
2018-11-25T20:52:33.713Z,-2.60
2018-11-25T20:55:02.781Z,-2.50
2018-11-25T20:59:00.934Z,-2.40
2018-11-25T21:02:59.298Z,-2.20
2018-11-25T21:05:28.401Z,-2.00
2018-11-25T21:07:57.219Z,-1.80
2018-11-25T21:10:26.387Z,-1.70
2018-11-25T21:12:56.069Z,-1.70
2018-11-25T21:15:27.512Z,-1.60
2018-11-25T21:17:56.988Z,-1.50
2018-11-25T21:20:27.043Z,-1.40
2018-11-25T21:22:56.232Z,-1.40
2018-11-25T21:25:25.022Z,-1.30
2018-11-25T21:27:53.811Z,-1.30
2018-11-25T21:30:27.176Z,-1.20
2018-11-25T21:32:58.043Z,-1.10
2018-11-25T21:35:27.857Z,-1.00
2018-11-25T21:37:56.778Z,-1.00
2018-11-25T21:40:26.021Z,-1.00
2018-11-25T21:42:55.126Z,-0.90
2018-11-25T21:45:24.019Z,-0.90
2018-11-25T21:47:52.749Z,-0.80
2018-11-25T21:50:26.465Z,-0.80
2018-11-25T21:52:55.194Z,-0.80
2018-11-25T21:55:24.314Z,-0.70
2018-11-25T21:57:53.237Z,-0.70
2018-11-25T22:00:23.962Z,-0.70
2018-11-25T22:02:52.746Z,-0.70
2018-11-25T22:05:24.963Z,-0.70
2018-11-25T22:07:52.045Z,-0.60
2018-11-25T22:10:22.597Z,-0.60
2018-11-25T22:12:50.726Z,-0.60
2018-11-25T22:15:21.877Z,-0.60
2018-11-25T22:17:50.728Z,-0.60
2018-11-25T22:20:19.913Z,-0.60
2018-11-25T22:22:48.817Z,-0.50
2018-11-25T22:25:18.935Z,-0.50
2018-11-25T22:27:47.827Z,-0.40
2018-11-25T22:30:25.125Z,-0.40
2018-11-25T22:32:54.287Z,-0.40
2018-11-25T22:35:24.313Z,-0.40
2018-11-25T22:37:53.054Z,-0.30
2018-11-25T22:40:21.743Z,-0.30
2018-11-25T22:42:51.545Z,-0.30
2018-11-25T22:45:21.677Z,-0.30
2018-11-25T22:47:50.587Z,-0.30
2018-11-25T22:57:05.786Z,-0.30
2018-11-25T22:59:34.375Z,-0.20
2018-11-25T23:03:33.021Z,-0.20
2018-11-25T23:06:12.670Z,-0.20
2018-11-25T23:08:41.741Z,-0.10
2018-11-25T23:11:10.446Z,-0.10
2018-11-25T23:13:39.089Z,-0.10
2018-11-25T23:28:58.137Z,-0.10
2018-11-25T23:31:27.104Z,-0.10
2018-11-25T23:34:02.582Z,0.00
2018-11-25T23:36:31.282Z,0.00
2018-11-25T23:38:59.966Z,0.00
2018-11-25T23:41:29.104Z,0.00
2018-11-25T23:43:57.878Z,0.00
2018-11-25T23:46:26.805Z,0.10
2018-11-25T23:48:58.941Z,0.10
2018-11-25T23:51:27.914Z,0.10
2018-11-25T23:53:56.617Z,0.10
2018-11-25T23:56:25.330Z,0.10
2018-11-25T23:58:54.003Z,0.10
